Time;durP1;ratioP1;P1;durP2;ratioP2;P2;SDS_P1;SDS_P2;PMS_P1;PMS_P2;Temp;Humidity;BMP_temperature;BMP_pressure;BME280_temperature;BME280_humidity;BME280_pressure;Samples;Min_cycle;Max_cycle;Signal;HPM_P1;HPM_P2
2022/08/25 00:00:07;;;;;;;5.43;2.45;;;;;;;;;;1028180;28;20105;-73
2022/08/25 00:00:39;;;;;;;7.80;2.47;;;;;;;;;;1028320;28;20034;-73
2022/08/25 00:01:12;;;;;;;2.85;1.45;;;;;;;;;;1028283;28;20462;-73
2022/08/25 00:01:47;;;;;;;3.80;1.88;;;;;;;;;;1027898;28;20027;-73
2022/08/25 00:02:17;;;;;;;9.70;2.88;;;;;;;;;;1027796;28;20031;-73
2022/08/25 00:02:48;;;;;;;9.15;2.22;;;;;;;;;;1028063;28;20483;-73
2022/08/25 00:03:19;;;;;;;8.43;3.40;;;;;;;;;;1027937;28;20033;-73
2022/08/25 00:03:51;;;;;;;6.13;2.35;;;;;;;;;;1027991;28;20046;-73
2022/08/25 00:04:22;;;;;;;6.55;2.05;;;;;;;;;;1027761;28;20471;-73
2022/08/25 00:04:53;;;;;;;6.43;2.00;;;;;;;;;;1027922;28;20170;-73
2022/08/25 00:05:26;;;;;;;5.05;2.08;;;;;;;;;;1027753;28;20066;-73
2022/08/25 00:05:57;;;;;;;14.77;3.17;;;;;;;;;;1027920;28;20030;-73
2022/08/25 00:06:27;;;;;;;7.65;2.70;;;;;;;;;;1027932;28;20462;-73
2022/08/25 00:06:58;;;;;;;5.47;1.58;;;;;;;;;;1027898;28;20031;-73
2022/08/25 00:07:30;;;;;;;5.32;2.35;;;;;;;;;;1028217;28;20026;-73
2022/08/25 00:08:01;;;;;;;9.75;2.08;;;;;;;;;;1028192;28;20090;-73
2022/08/25 00:08:33;;;;;;;18.13;2.28;;;;;;;;;;1028259;28;20034;-73
2022/08/25 00:09:04;;;;;;;6.18;2.20;;;;;;;;;;1028179;28;20027;-73
2022/08/25 00:09:35;;;;;;;14.40;2.50;;;;;;;;;;1028343;28;20090;-74
2022/08/25 00:10:06;;;;;;;13.80;2.33;;;;;;;;;;1028147;28;20030;-74
2022/08/25 00:10:37;;;;;;;14.52;1.98;;;;;;;;;;1028285;28;20031;-74
2022/08/25 00:11:13;;;;;;;13.75;2.40;;;;;;;;;;1027750;28;20030;-74
2022/08/25 00:11:43;;;;;;;3.53;1.67;;;;;;;;;;1027995;28;20045;-74
2022/08/25 00:12:14;;;;;;;6.80;2.17;;;;;;;;;;1027709;28;20525;-73
2022/08/25 00:12:45;;;;;;;5.13;2.25;;;;;;;;;;1028001;28;20034;-73
2022/08/25 00:13:15;;;;;;;6.35;1.75;;;;;;;;;;1027823;28;20030;-73
2022/08/25 00:13:48;;;;;;;6.18;2.35;;;;;;;;;;1024064;28;20457;-73
2022/08/25 00:14:20;;;;;;;3.13;1.83;;;;;;;;;;1027771;28;20380;-73
2022/08/25 00:14:51;;;;;;;20.13;2.65;;;;;;;;;;1028057;28;20027;-73
2022/08/25 00:15:22;;;;;;;5.68;2.20;;;;;;;;;;1027856;28;20523;-73
2022/08/25 00:15:53;;;;;;;7.82;3.10;;;;;;;;;;1027924;28;20026;-73
2022/08/25 00:16:25;;;;;;;9.88;2.22;;;;;;;;;;1027797;28;20422;-73
2022/08/25 00:16:56;;;;;;;7.85;2.40;;;;;;;;;;1027953;28;20022;-73
2022/08/25 00:17:27;;;;;;;10.25;3.13;;;;;;;;;;1027862;28;20022;-73
2022/08/25 00:17:58;;;;;;;10.82;2.13;;;;;;;;;;1027815;28;20027;-73
2022/08/25 00:18:29;;;;;;;8.55;1.90;;;;;;;;;;1027888;28;20038;-73
2022/08/25 00:19:03;;;;;;;10.38;3.72;;;;;;;;;;1027778;28;20825;-73
2022/08/25 00:19:35;;;;;;;6.88;1.92;;;;;;;;;;1027814;28;20035;-73
2022/08/25 00:20:08;;;;;;;12.13;2.33;;;;;;;;;;1027871;28;20086;-73
2022/08/25 00:20:38;;;;;;;5.25;1.55;;;;;;;;;;1023810;29;20051;-73
2022/08/25 00:21:09;;;;;;;8.60;2.25;;;;;;;;;;1024300;28;20031;-73
2022/08/25 00:21:40;;;;;;;18.83;3.53;;;;;;;;;;1023856;28;20053;-73
2022/08/25 00:22:11;;;;;;;9.38;2.75;;;;;;;;;;1023941;28;20574;-73
2022/08/25 00:22:41;;;;;;;6.28;2.00;;;;;;;;;;1023812;28;20063;-73
2022/08/25 00:23:12;;;;;;;9.00;3.20;;;;;;;;;;1024056;28;20031;-73
2022/08/25 00:23:44;;;;;;;4.60;2.22;;;;;;;;;;1027909;28;20106;-74
2022/08/25 00:24:16;;;;;;;4.68;2.10;;;;;;;;;;1027777;28;20105;-74
2022/08/25 00:24:46;;;;;;;5.88;2.13;;;;;;;;;;1028226;28;20106;-73
2022/08/25 00:25:17;;;;;;;14.43;2.95;;;;;;;;;;1027976;28;20086;-73
2022/08/25 00:25:49;;;;;;;10.02;2.80;;;;;;;;;;1028238;28;20526;-73
2022/08/25 00:26:21;;;;;;;8.32;2.40;;;;;;;;;;1028027;28;20085;-73
2022/08/25 00:26:53;;;;;;;4.63;2.35;;;;;;;;;;1028192;28;20023;-73
2022/08/25 00:27:24;;;;;;;5.22;2.13;;;;;;;;;;1028026;28;20035;-73
2022/08/25 00:27:55;;;;;;;23.17;2.63;;;;;;;;;;1028289;28;20030;-73
2022/08/25 00:28:27;;;;;;;9.18;2.10;;;;;;;;;;1027688;28;20541;-73
2022/08/25 00:28:57;;;;;;;11.57;1.80;;;;;;;;;;1027820;28;20030;-73
2022/08/25 00:29:29;;;;;;;4.15;2.17;;;;;;;;;;1027843;28;20027;-73
2022/08/25 00:30:00;;;;;;;9.02;1.95;;;;;;;;;;1027838;28;20105;-73
2022/08/25 00:30:30;;;;;;;3.20;2.08;;;;;;;;;;1028230;28;20030;-73
2022/08/25 00:31:02;;;;;;;16.60;2.75;;;;;;;;;;1027676;28;20141;-73
2022/08/25 00:31:32;;;;;;;3.80;2.17;;;;;;;;;;1027851;28;20070;-73
2022/08/25 00:32:04;;;;;;;4.93;2.05;;;;;;;;;;1027769;28;20431;-73
2022/08/25 00:32:35;;;;;;;10.48;2.13;;;;;;;;;;1027810;28;20419;-73
2022/08/25 00:33:06;;;;;;;4.32;1.90;;;;;;;;;;1027696;28;20027;-73
2022/08/25 00:33:36;;;;;;;11.43;2.33;;;;;;;;;;1027794;28;20033;-73
2022/08/25 00:34:08;;;;;;;5.30;1.80;;;;;;;;;;1027749;28;20031;-73
2022/08/25 00:34:39;;;;;;;5.47;2.10;;;;;;;;;;1027831;28;20078;-73
2022/08/25 00:35:10;;;;;;;9.00;2.15;;;;;;;;;;1027801;28;20034;-73
2022/08/25 00:35:41;;;;;;;4.43;1.73;;;;;;;;;;1028157;28;20045;-73
2022/08/25 00:36:12;;;;;;;11.65;2.08;;;;;;;;;;1027661;28;20422;-73
2022/08/25 00:36:42;;;;;;;8.13;2.45;;;;;;;;;;1027881;28;20031;-73
2022/08/25 00:37:14;;;;;;;4.53;1.63;;;;;;;;;;1027585;28;20023;-73
2022/08/25 00:37:45;;;;;;;4.70;2.33;;;;;;;;;;1027761;28;20034;-73
2022/08/25 00:38:15;;;;;;;9.88;1.98;;;;;;;;;;1023597;29;21035;-73
2022/08/25 00:38:46;;;;;;;4.07;1.98;;;;;;;;;;1023910;29;20041;-73
2022/08/25 00:39:19;;;;;;;4.25;2.45;;;;;;;;;;1023483;29;20070;-73
2022/08/25 00:39:51;;;;;;;5.82;1.55;;;;;;;;;;1024331;28;20031;-73
2022/08/25 00:40:23;;;;;;;4.78;1.65;;;;;;;;;;1027686;28;20396;-73
2022/08/25 00:41:06;;;;;;;7.90;1.50;;;;;;;;;;1027878;28;20558;-73
2022/08/25 00:41:38;;;;;;;5.30;2.25;;;;;;;;;;1025914;28;20031;-73
2022/08/25 00:42:09;;;;;;;6.95;1.80;;;;;;;;;;1027657;28;20030;-73
2022/08/25 00:42:40;;;;;;;2.90;1.42;;;;;;;;;;1027870;28;20022;-73
2022/08/25 00:43:11;;;;;;;3.30;1.38;;;;;;;;;;1027772;28;20062;-73
2022/08/25 00:43:44;;;;;;;11.50;1.73;;;;;;;;;;1028095;28;20021;-73
2022/08/25 00:44:17;;;;;;;3.30;1.55;;;;;;;;;;1028005;28;20062;-73
2022/08/25 00:44:47;;;;;;;7.95;1.20;;;;;;;;;;1028124;28;20035;-73
2022/08/25 00:45:18;;;;;;;5.88;2.00;;;;;;;;;;1027562;28;20027;-73
2022/08/25 00:45:49;;;;;;;6.03;1.88;;;;;;;;;;1027927;28;20030;-73
2022/08/25 00:46:24;;;;;;;9.65;1.58;;;;;;;;;;1027664;28;20027;-73
2022/08/25 00:46:56;;;;;;;3.75;1.90;;;;;;;;;;1027914;28;20511;-73
2022/08/25 00:47:26;;;;;;;6.85;1.85;;;;;;;;;;1028094;28;20026;-73
2022/08/25 00:47:57;;;;;;;6.72;1.70;;;;;;;;;;1028072;28;20030;-73
2022/08/25 00:48:28;;;;;;;10.00;1.30;;;;;;;;;;1028114;28;20034;-73
2022/08/25 00:49:04;;;;;;;5.40;2.10;;;;;;;;;;1028102;28;20022;-73
2022/08/25 00:49:37;;;;;;;6.55;1.65;;;;;;;;;;1028147;28;20376;-73
2022/08/25 00:50:09;;;;;;;7.35;2.55;;;;;;;;;;1028005;28;20026;-73
2022/08/25 00:50:39;;;;;;;4.18;1.67;;;;;;;;;;1028116;28;20019;-73
2022/08/25 00:51:12;;;;;;;8.25;1.90;;;;;;;;;;1028020;28;20039;-73
2022/08/25 00:51:49;;;;;;;12.25;2.03;;;;;;;;;;1028137;28;20468;-73
2022/08/25 00:52:26;;;;;;;8.38;1.85;;;;;;;;;;1027559;28;20031;-73
2022/08/25 00:52:59;;;;;;;5.60;1.70;;;;;;;;;;1027831;28;20126;-73
2022/08/25 00:53:30;;;;;;;4.07;1.65;;;;;;;;;;1027795;28;20022;-74
2022/08/25 00:54:01;;;;;;;21.52;1.73;;;;;;;;;;1027770;28;20094;-73
2022/08/25 00:54:40;;;;;;;13.13;2.00;;;;;;;;;;1028025;28;20026;-73
2022/08/25 00:55:14;;;;;;;5.75;1.33;;;;;;;;;;1028014;28;20029;-73
2022/08/25 00:55:45;;;;;;;9.60;1.05;;;;;;;;;;1028126;28;20019;-73
2022/08/25 00:56:16;;;;;;;5.22;2.05;;;;;;;;;;1027957;28;20026;-73
2022/08/25 00:56:47;;;;;;;7.18;1.60;;;;;;;;;;1028097;28;20026;-73
2022/08/25 00:57:19;;;;;;;7.55;1.30;;;;;;;;;;1027534;28;20403;-73
2022/08/25 00:57:59;;;;;;;4.72;1.60;;;;;;;;;;1027875;28;20057;-73
2022/08/25 00:58:30;;;;;;;5.80;1.95;;;;;;;;;;1027729;28;20033;-73
2022/08/25 00:59:01;;;;;;;11.02;1.90;;;;;;;;;;1029223;28;20611;-73
2022/08/25 00:59:33;;;;;;;5.65;1.73;;;;;;;;;;1031333;28;20497;-73
2022/08/25 01:00:07;;;;;;;4.82;1.88;;;;;;;;;;1027697;28;20073;-73
2022/08/25 01:00:40;;;;;;;6.38;1.88;;;;;;;;;;1023655;29;20031;-73
2022/08/25 01:01:10;;;;;;;8.57;2.85;;;;;;;;;;1023675;29;20033;-73
2022/08/25 01:01:42;;;;;;;10.98;2.75;;;;;;;;;;1023798;29;20034;-73
2022/08/25 01:02:14;;;;;;;8.02;1.67;;;;;;;;;;1023646;29;20034;-73
2022/08/25 01:02:44;;;;;;;13.52;2.20;;;;;;;;;;1024130;29;20053;-73
2022/08/25 01:03:17;;;;;;;18.60;2.63;;;;;;;;;;1023971;28;20499;-73
2022/08/25 01:03:48;;;;;;;3.67;1.98;;;;;;;;;;1025998;28;20290;-73
2022/08/25 01:04:18;;;;;;;11.40;1.77;;;;;;;;;;1027560;28;20203;-73
2022/08/25 01:04:49;;;;;;;7.32;2.00;;;;;;;;;;1027694;28;20023;-73
2022/08/25 01:05:20;;;;;;;5.35;1.83;;;;;;;;;;1027656;28;20058;-73
2022/08/25 01:05:51;;;;;;;6.20;1.88;;;;;;;;;;1027764;28;20030;-73
2022/08/25 01:06:22;;;;;;;8.30;1.38;;;;;;;;;;1027590;28;20072;-73
2022/08/25 01:06:54;;;;;;;10.40;1.88;;;;;;;;;;1027766;28;20038;-73
2022/08/25 01:07:24;;;;;;;51.13;3.67;;;;;;;;;;1026898;28;20415;-73
2022/08/25 01:07:57;;;;;;;16.85;2.45;;;;;;;;;;1028006;28;20034;-73
2022/08/25 01:08:28;;;;;;;7.18;2.60;;;;;;;;;;1028016;28;20023;-73
2022/08/25 01:08:59;;;;;;;22.83;2.28;;;;;;;;;;1027988;28;20439;-73
2022/08/25 01:09:33;;;;;;;5.53;1.73;;;;;;;;;;1027664;28;20029;-73
2022/08/25 01:10:06;;;;;;;8.02;1.65;;;;;;;;;;1027654;28;20031;-73
2022/08/25 01:10:38;;;;;;;4.63;1.67;;;;;;;;;;1027769;28;20039;-74
2022/08/25 01:11:09;;;;;;;4.32;2.22;;;;;;;;;;1027683;28;20070;-73
2022/08/25 01:11:41;;;;;;;6.47;2.47;;;;;;;;;;1027961;28;20062;-73
2022/08/25 01:12:11;;;;;;;8.15;2.25;;;;;;;;;;1027798;28;20530;-73
2022/08/25 01:12:42;;;;;;;4.95;2.20;;;;;;;;;;1028086;28;20078;-73
2022/08/25 01:13:16;;;;;;;11.75;1.63;;;;;;;;;;1027932;28;20398;-73
2022/08/25 01:13:50;;;;;;;7.82;1.70;;;;;;;;;;1027713;28;20038;-73
2022/08/25 01:14:20;;;;;;;14.10;1.98;;;;;;;;;;1027606;28;20027;-73
2022/08/25 01:14:51;;;;;;;5.90;1.15;;;;;;;;;;1027826;28;20034;-73
2022/08/25 01:15:22;;;;;;;11.27;1.92;;;;;;;;;;1027601;28;20038;-73
2022/08/25 01:15:54;;;;;;;3.45;1.50;;;;;;;;;;1028134;28;20117;-73
2022/08/25 01:16:26;;;;;;;8.02;1.55;;;;;;;;;;1027908;28;20365;-73
2022/08/25 01:16:58;;;;;;;5.38;1.52;;;;;;;;;;1028027;28;20035;-73
2022/08/25 01:17:48;;;;;;;7.28;2.13;;;;;;;;;;1028018;28;20031;-73
2022/08/25 01:18:19;;;;;;;10.02;1.90;;;;;;;;;;1027916;28;20029;-73
2022/08/25 01:18:51;;;;;;;5.15;1.85;;;;;;;;;;1028072;28;20383;-73
2022/08/25 01:19:24;;;;;;;3.25;1.50;;;;;;;;;;1027895;28;20038;-73
2022/08/25 01:19:54;;;;;;;3.92;1.52;;;;;;;;;;1027687;28;20081;-73
2022/08/25 01:20:26;;;;;;;3.63;1.50;;;;;;;;;;1027582;28;20713;-73
2022/08/25 01:20:58;;;;;;;4.80;1.98;;;;;;;;;;1027660;28;20026;-73
2022/08/25 01:21:30;;;;;;;5.35;1.73;;;;;;;;;;1027725;28;20019;-73
2022/08/25 01:22:01;;;;;;;5.72;1.70;;;;;;;;;;1027947;28;20081;-73
2022/08/25 01:22:31;;;;;;;4.38;1.35;;;;;;;;;;1027575;28;20476;-73
2022/08/25 01:23:02;;;;;;;5.03;2.28;;;;;;;;;;1027615;28;20026;-73
2022/08/25 01:23:33;;;;;;;5.05;2.33;;;;;;;;;;1027723;28;20061;-73
2022/08/25 01:24:03;;;;;;;3.42;1.27;;;;;;;;;;1027588;28;20122;-74
2022/08/25 01:24:37;;;;;;;5.03;2.03;;;;;;;;;;1031736;28;20041;-73
2022/08/25 01:25:28;;;;;;;6.90;2.03;;;;;;;;;;1031541;28;20030;-73
2022/08/25 01:26:05;;;;;;;2.88;1.80;;;;;;;;;;1027815;28;20058;-73
2022/08/25 01:26:35;;;;;;;6.65;2.08;;;;;;;;;;1028101;28;20121;-73
2022/08/25 01:27:06;;;;;;;2.83;1.30;;;;;;;;;;1027811;28;20037;-73
2022/08/25 01:27:37;;;;;;;4.43;1.50;;;;;;;;;;1028047;28;20031;-73
2022/08/25 01:28:08;;;;;;;6.10;2.30;;;;;;;;;;1027937;28;20031;-73
2022/08/25 01:29:19;;;;;;;4.55;1.65;;;;;;;;;;1027996;28;20517;-73
2022/08/25 01:29:30;;;;;;;6.25;1.90;;;;;;;;;;1027847;28;20517;-73
2022/08/25 01:30:01;;;;;;;3.55;1.17;;;;;;;;;;1027986;28;20460;-73
2022/08/25 01:30:32;;;;;;;7.30;2.38;;;;;;;;;;1027616;28;20431;-73
2022/08/25 01:31:03;;;;;;;5.60;1.88;;;;;;;;;;1027629;28;20027;-73
2022/08/25 01:31:35;;;;;;;3.63;1.42;;;;;;;;;;1027724;28;20581;-73
2022/08/25 01:32:09;;;;;;;21.95;3.05;;;;;;;;;;1027313;28;20023;-73
2022/08/25 01:32:40;;;;;;;6.40;1.63;;;;;;;;;;1025791;28;20038;-73
2022/08/25 01:33:10;;;;;;;6.88;1.75;;;;;;;;;;1026040;28;20431;-73
2022/08/25 01:33:41;;;;;;;6.03;1.50;;;;;;;;;;1028003;28;20077;-73
2022/08/25 01:34:12;;;;;;;18.42;2.67;;;;;;;;;;1027020;28;20439;-73
2022/08/25 01:34:44;;;;;;;7.32;1.83;;;;;;;;;;1027845;28;20038;-73
2022/08/25 01:35:14;;;;;;;12.68;1.60;;;;;;;;;;1026493;28;20023;-73
2022/08/25 01:35:45;;;;;;;14.80;2.33;;;;;;;;;;1026149;28;20034;-73
2022/08/25 01:36:20;;;;;;;9.20;3.17;;;;;;;;;;1026336;28;20026;-73
2022/08/25 01:36:51;;;;;;;12.38;1.67;;;;;;;;;;1026539;28;20031;-73
2022/08/25 01:37:21;;;;;;;7.47;2.78;;;;;;;;;;1026871;28;20023;-73
2022/08/25 01:37:52;;;;;;;6.68;2.05;;;;;;;;;;1027523;28;20479;-73
2022/08/25 01:38:22;;;;;;;13.18;1.92;;;;;;;;;;1026880;28;20447;-73
2022/08/25 01:38:53;;;;;;;14.73;2.22;;;;;;;;;;1028025;28;20113;-73
2022/08/25 01:39:24;;;;;;;7.68;1.85;;;;;;;;;;1026988;28;20070;-73
2022/08/25 01:39:55;;;;;;;6.45;3.08;;;;;;;;;;1027681;28;20117;-73
2022/08/25 01:40:25;;;;;;;8.15;2.22;;;;;;;;;;1027269;28;20402;-73
2022/08/25 01:40:56;;;;;;;5.97;2.38;;;;;;;;;;1027115;28;20027;-73
2022/08/25 01:41:35;;;;;;;13.15;3.50;;;;;;;;;;1026414;28;20544;-73
2022/08/25 01:42:06;;;;;;;11.35;1.83;;;;;;;;;;1026731;28;20034;-73
2022/08/25 01:42:53;;;;;;;16.20;2.33;;;;;;;;;;1027690;28;20121;-73
2022/08/25 01:43:37;;;;;;;15.68;3.53;;;;;;;;;;1026827;28;20859;-73
2022/08/25 01:44:07;;;;;;;6.32;2.63;;;;;;;;;;1026957;28;20089;-73
2022/08/25 01:44:42;;;;;;;16.23;2.95;;;;;;;;;;1027958;28;20089;-73
2022/08/25 01:45:13;;;;;;;10.40;2.20;;;;;;;;;;1026413;28;20514;-73
2022/08/25 01:45:45;;;;;;;6.25;2.13;;;;;;;;;;1026160;28;20035;-73
2022/08/25 01:46:15;;;;;;;8.10;2.42;;;;;;;;;;1027135;28;20446;-73
2022/08/25 01:46:46;;;;;;;4.95;1.77;;;;;;;;;;1027929;28;20029;-73
2022/08/25 01:47:16;;;;;;;10.27;2.25;;;;;;;;;;1023788;28;20034;-73
2022/08/25 01:47:47;;;;;;;12.32;3.03;;;;;;;;;;1026124;28;20098;-73
2022/08/25 01:48:18;;;;;;;7.32;2.13;;;;;;;;;;1022332;29;20024;-73
2022/08/25 01:48:48;;;;;;;6.43;1.83;;;;;;;;;;1023082;28;20061;-73
2022/08/25 01:49:19;;;;;;;6.32;1.20;;;;;;;;;;1023246;28;20460;-73
2022/08/25 01:49:50;;;;;;;7.90;1.83;;;;;;;;;;1027678;28;20030;-73
2022/08/25 01:50:20;;;;;;;10.90;2.22;;;;;;;;;;1027518;28;20549;-73
2022/08/25 01:50:51;;;;;;;9.23;2.95;;;;;;;;;;1027654;28;20117;-73
2022/08/25 01:51:23;;;;;;;7.70;2.22;;;;;;;;;;1027212;28;20033;-73
2022/08/25 01:52:00;;;;;;;9.70;2.45;;;;;;;;;;1027770;28;20026;-73
2022/08/25 01:52:33;;;;;;;8.30;2.72;;;;;;;;;;1027171;28;20031;-73
2022/08/25 01:53:14;;;;;;;7.30;2.45;;;;;;;;;;1026419;28;20027;-73
2022/08/25 01:53:44;;;;;;;15.60;3.97;;;;;;;;;;1027388;28;20078;-73
2022/08/25 01:54:15;;;;;;;12.27;2.90;;;;;;;;;;1025917;28;20031;-74
2022/08/25 01:54:45;;;;;;;7.28;2.45;;;;;;;;;;1028916;28;20038;-74
2022/08/25 01:55:16;;;;;;;12.02;2.70;;;;;;;;;;1029425;28;20037;-74
2022/08/25 01:56:00;;;;;;;10.70;2.65;;;;;;;;;;1030422;28;20023;-74
2022/08/25 01:56:31;;;;;;;6.65;2.03;;;;;;;;;;1029538;28;20395;-73
2022/08/25 01:57:02;;;;;;;9.80;2.22;;;;;;;;;;1027716;28;20026;-73
2022/08/25 01:57:32;;;;;;;5.30;1.67;;;;;;;;;;1027904;28;20046;-73
2022/08/25 01:58:03;;;;;;;11.57;2.22;;;;;;;;;;1027404;28;20117;-73
2022/08/25 01:58:35;;;;;;;13.98;2.38;;;;;;;;;;1031173;28;20030;-73
2022/08/25 01:59:05;;;;;;;6.35;2.67;;;;;;;;;;1028108;28;20027;-73
2022/08/25 01:59:36;;;;;;;9.13;3.08;;;;;;;;;;1032302;28;20518;-73
2022/08/25 02:00:08;;;;;;;5.40;2.35;;;;;;;;;;1031189;28;20129;-73
2022/08/25 02:00:43;;;;;;;11.77;2.78;;;;;;;;;;1028639;28;20026;-73
2022/08/25 02:01:16;;;;;;;9.05;1.85;;;;;;;;;;1027571;28;20034;-73
2022/08/25 02:01:47;;;;;;;12.20;2.58;;;;;;;;;;1028401;28;20066;-73
2022/08/25 02:02:17;;;;;;;12.27;2.45;;;;;;;;;;1027317;28;20101;-73
2022/08/25 02:02:48;;;;;;;10.50;2.67;;;;;;;;;;1028108;28;20033;-73
2022/08/25 02:03:19;;;;;;;10.85;2.53;;;;;;;;;;1027885;28;20034;-74
2022/08/25 02:03:50;;;;;;;15.63;2.65;;;;;;;;;;1028736;28;20030;-74
2022/08/25 02:04:21;;;;;;;11.60;2.70;;;;;;;;;;1027500;28;20031;-73
2022/08/25 02:04:52;;;;;;;19.65;2.65;;;;;;;;;;1027690;28;20066;-73
2022/08/25 02:05:22;;;;;;;9.13;2.20;;;;;;;;;;1026889;28;20078;-74
2022/08/25 02:05:53;;;;;;;7.55;2.63;;;;;;;;;;1027054;28;20027;-74
2022/08/25 02:06:27;;;;;;;7.65;1.85;;;;;;;;;;1026601;28;20037;-73
2022/08/25 02:07:01;;;;;;;11.20;3.40;;;;;;;;;;1028189;28;20402;-73
2022/08/25 02:07:31;;;;;;;8.48;2.30;;;;;;;;;;1027437;28;20407;-73
2022/08/25 02:08:02;;;;;;;8.38;3.20;;;;;;;;;;1027800;28;20031;-73
2022/08/25 02:08:33;;;;;;;6.38;2.13;;;;;;;;;;1026947;28;20034;-73
2022/08/25 02:09:07;;;;;;;8.52;2.47;;;;;;;;;;1027655;28;20475;-73
2022/08/25 02:09:38;;;;;;;7.25;2.35;;;;;;;;;;1026627;28;20395;-73
2022/08/25 02:10:10;;;;;;;6.05;2.78;;;;;;;;;;1027027;28;20376;-73
2022/08/25 02:10:40;;;;;;;19.42;2.60;;;;;;;;;;1027380;28;20065;-73
2022/08/25 02:11:13;;;;;;;11.52;2.50;;;;;;;;;;1024637;28;20027;-73
2022/08/25 02:11:46;;;;;;;16.38;2.55;;;;;;;;;;1028167;28;20153;-73
2022/08/25 02:12:17;;;;;;;9.88;2.67;;;;;;;;;;1026556;28;20045;-73
2022/08/25 02:12:50;;;;;;;8.68;2.67;;;;;;;;;;1024280;29;20492;-73
2022/08/25 02:13:21;;;;;;;9.52;2.53;;;;;;;;;;1023944;28;20113;-73
2022/08/25 02:13:51;;;;;;;10.93;2.10;;;;;;;;;;1028318;28;20475;-73
2022/08/25 02:14:22;;;;;;;4.72;1.60;;;;;;;;;;1027035;28;20113;-73
2022/08/25 02:14:53;;;;;;;11.57;2.60;;;;;;;;;;1028715;28;20121;-73
2022/08/25 02:15:24;;;;;;;4.85;2.42;;;;;;;;;;1027527;28;20027;-73
2022/08/25 02:15:55;;;;;;;6.85;2.28;;;;;;;;;;1028287;28;20037;-73
2022/08/25 02:16:28;;;;;;;5.57;1.98;;;;;;;;;;1025302;28;20026;-73
2022/08/25 02:16:58;;;;;;;9.43;2.40;;;;;;;;;;1025227;28;20038;-73
2022/08/25 02:17:29;;;;;;;4.57;1.70;;;;;;;;;;1027522;28;20031;-73
2022/08/25 02:18:00;;;;;;;8.27;2.88;;;;;;;;;;1028521;28;20027;-73
2022/08/25 02:18:30;;;;;;;5.10;2.05;;;;;;;;;;1027278;28;20443;-73
2022/08/25 02:19:01;;;;;;;8.02;2.17;;;;;;;;;;1026905;28;20090;-73
2022/08/25 02:19:32;;;;;;;12.15;2.15;;;;;;;;;;1026991;28;20034;-73
2022/08/25 02:20:04;;;;;;;7.43;2.05;;;;;;;;;;1023134;29;20058;-73
2022/08/25 02:20:35;;;;;;;4.75;2.42;;;;;;;;;;1023932;28;20031;-73
2022/08/25 02:21:05;;;;;;;6.32;2.22;;;;;;;;;;1026791;28;20031;-73
2022/08/25 02:21:36;;;;;;;8.60;2.35;;;;;;;;;;1028126;28;20037;-73
2022/08/25 02:22:07;;;;;;;10.68;2.72;;;;;;;;;;1026999;28;20066;-73
2022/08/25 02:22:37;;;;;;;4.82;2.00;;;;;;;;;;1027973;28;20034;-73
2022/08/25 02:23:09;;;;;;;8.48;2.42;;;;;;;;;;1026542;28;20034;-73
2022/08/25 02:23:41;;;;;;;4.68;2.58;;;;;;;;;;1026252;28;20031;-73
2022/08/25 02:24:11;;;;;;;5.80;1.75;;;;;;;;;;1027131;28;20082;-73
2022/08/25 02:24:42;;;;;;;6.55;2.55;;;;;;;;;;1027265;28;20034;-73
2022/08/25 02:25:12;;;;;;;9.40;2.35;;;;;;;;;;1027073;28;20044;-73
2022/08/25 02:25:43;;;;;;;10.65;2.40;;;;;;;;;;1025692;28;20037;-73
2022/08/25 02:26:18;;;;;;;8.73;1.58;;;;;;;;;;1025413;28;20035;-73
2022/08/25 02:26:49;;;;;;;3.05;1.63;;;;;;;;;;1025733;28;20039;-73
2022/08/25 02:27:19;;;;;;;3.88;1.50;;;;;;;;;;1024931;28;20129;-73
2022/08/25 02:27:50;;;;;;;18.15;2.10;;;;;;;;;;1026301;28;20941;-73
2022/08/25 02:28:21;;;;;;;5.25;2.30;;;;;;;;;;1026096;28;20027;-73
2022/08/25 02:28:53;;;;;;;2.92;1.42;;;;;;;;;;1027235;28;20023;-73
2022/08/25 02:29:23;;;;;;;12.60;1.80;;;;;;;;;;1026171;28;20023;-73
2022/08/25 02:29:54;;;;;;;8.75;2.03;;;;;;;;;;1027920;28;20030;-73
2022/08/25 02:30:25;;;;;;;5.68;2.15;;;;;;;;;;1025787;28;20038;-73
2022/08/25 02:30:56;;;;;;;6.78;2.53;;;;;;;;;;1027844;28;20037;-73
2022/08/25 02:31:27;;;;;;;10.80;1.88;;;;;;;;;;1025592;28;20038;-73
2022/08/25 02:31:57;;;;;;;4.18;2.10;;;;;;;;;;1026207;28;20038;-74
2022/08/25 02:32:28;;;;;;;5.75;1.95;;;;;;;;;;1026792;28;20058;-74
2022/08/25 02:32:59;;;;;;;18.65;2.58;;;;;;;;;;1025706;28;20034;-73
2022/08/25 02:33:29;;;;;;;9.35;2.60;;;;;;;;;;1026096;28;20082;-73
2022/08/25 02:34:01;;;;;;;3.42;1.83;;;;;;;;;;1027762;28;20082;-73
2022/08/25 02:34:31;;;;;;;5.78;2.60;;;;;;;;;;1025974;28;20035;-73
2022/08/25 02:35:02;;;;;;;6.28;1.95;;;;;;;;;;1025025;28;20531;-73
2022/08/25 02:35:33;;;;;;;13.93;3.30;;;;;;;;;;1026383;28;20062;-74
2022/08/25 02:36:03;;;;;;;4.82;2.33;;;;;;;;;;1022837;28;20031;-73
2022/08/25 02:36:34;;;;;;;12.30;3.03;;;;;;;;;;1024589;28;20031;-74
2022/08/25 02:37:05;;;;;;;8.80;3.10;;;;;;;;;;1025864;28;20029;-73
2022/08/25 02:37:35;;;;;;;5.07;1.80;;;;;;;;;;1025682;28;20035;-73
2022/08/25 02:38:06;;;;;;;2.95;1.33;;;;;;;;;;1023753;28;20030;-73
2022/08/25 02:38:37;;;;;;;4.47;1.83;;;;;;;;;;1026069;28;20023;-73
2022/08/25 02:39:09;;;;;;;11.65;2.28;;;;;;;;;;1022089;29;20499;-73
2022/08/25 02:39:39;;;;;;;5.70;2.70;;;;;;;;;;1024135;28;20027;-73
2022/08/25 02:40:10;;;;;;;15.18;2.90;;;;;;;;;;1026896;28;20034;-73
2022/08/25 02:40:40;;;;;;;9.70;2.53;;;;;;;;;;1028055;28;20570;-73
2022/08/25 02:41:15;;;;;;;16.33;2.53;;;;;;;;;;1024907;28;20502;-73
2022/08/25 02:41:46;;;;;;;10.98;2.08;;;;;;;;;;1025991;28;20038;-73
2022/08/25 02:42:16;;;;;;;14.27;2.85;;;;;;;;;;1026190;28;20027;-73
2022/08/25 02:42:47;;;;;;;10.65;2.22;;;;;;;;;;1027585;28;20030;-73
2022/08/25 02:43:18;;;;;;;14.32;2.28;;;;;;;;;;1024966;28;20058;-73
2022/08/25 02:43:49;;;;;;;6.03;1.83;;;;;;;;;;1026754;28;20414;-73
2022/08/25 02:44:21;;;;;;;11.23;1.80;;;;;;;;;;1026961;28;20747;-73
2022/08/25 02:44:52;;;;;;;14.45;2.78;;;;;;;;;;1027662;28;20033;-73
2022/08/25 02:45:23;;;;;;;10.27;1.88;;;;;;;;;;1025763;28;20114;-73
2022/08/25 02:45:54;;;;;;;6.03;2.35;;;;;;;;;;1027410;28;20038;-73
2022/08/25 02:46:25;;;;;;;5.43;2.08;;;;;;;;;;1026385;28;20991;-73
2022/08/25 02:46:56;;;;;;;4.53;2.03;;;;;;;;;;1026706;28;20037;-73
2022/08/25 02:47:26;;;;;;;6.28;2.17;;;;;;;;;;1025292;28;20368;-73
2022/08/25 02:47:57;;;;;;;4.82;2.03;;;;;;;;;;1027739;28;20028;-73
2022/08/25 02:48:27;;;;;;;14.05;2.10;;;;;;;;;;1026693;28;20034;-73
2022/08/25 02:48:58;;;;;;;12.23;2.25;;;;;;;;;;1024628;28;20019;-73
2022/08/25 02:49:29;;;;;;;3.63;1.48;;;;;;;;;;1021079;28;20385;-73
2022/08/25 02:49:59;;;;;;;2.20;1.25;;;;;;;;;;1024077;28;20038;-73
2022/08/25 02:50:30;;;;;;;12.25;2.42;;;;;;;;;;1024650;28;20097;-73
2022/08/25 02:51:01;;;;;;;17.05;2.78;;;;;;;;;;1023378;28;20031;-74
2022/08/25 02:51:33;;;;;;;11.45;2.60;;;;;;;;;;1025545;28;20054;-73
2022/08/25 02:52:04;;;;;;;5.50;1.73;;;;;;;;;;1022958;28;20027;-74
2022/08/25 02:52:35;;;;;;;11.18;3.10;;;;;;;;;;1024040;28;20027;-73
2022/08/25 02:53:06;;;;;;;5.60;1.85;;;;;;;;;;1026616;28;20163;-73
2022/08/25 02:53:38;;;;;;;11.00;2.20;;;;;;;;;;1027520;28;20536;-73
2022/08/25 02:54:09;;;;;;;14.30;1.98;;;;;;;;;;1025138;28;20025;-73
2022/08/25 02:54:39;;;;;;;16.35;2.35;;;;;;;;;;1021550;28;20031;-73
2022/08/25 02:55:12;;;;;;;9.80;2.38;;;;;;;;;;1022604;29;20019;-73
2022/08/25 02:55:43;;;;;;;16.35;2.88;;;;;;;;;;1023787;28;20038;-73
2022/08/25 02:56:14;;;;;;;8.43;2.85;;;;;;;;;;1025640;28;20023;-73
2022/08/25 02:56:45;;;;;;;6.38;2.00;;;;;;;;;;1026800;28;20023;-74
2022/08/25 02:57:16;;;;;;;5.43;1.65;;;;;;;;;;1025467;28;20035;-73
2022/08/25 02:57:47;;;;;;;13.30;2.47;;;;;;;;;;1027871;28;20034;-73
2022/08/25 02:58:18;;;;;;;12.93;2.08;;;;;;;;;;1025631;28;20019;-73
2022/08/25 02:58:48;;;;;;;11.23;1.95;;;;;;;;;;1027117;28;20035;-73
2022/08/25 02:59:19;;;;;;;6.60;1.80;;;;;;;;;;1026377;28;20069;-74
2022/08/25 02:59:50;;;;;;;14.90;2.25;;;;;;;;;;1026585;28;20630;-73
2022/08/25 03:00:21;;;;;;;13.05;3.72;;;;;;;;;;1025087;28;20141;-73
2022/08/25 03:00:51;;;;;;;15.00;2.97;;;;;;;;;;1025866;28;20518;-73
2022/08/25 03:01:22;;;;;;;12.02;2.17;;;;;;;;;;1025467;28;20066;-74
2022/08/25 03:01:52;;;;;;;5.07;2.03;;;;;;;;;;1025142;28;20027;-74
2022/08/25 03:02:24;;;;;;;10.48;2.33;;;;;;;;;;1024081;28;20039;-73
2022/08/25 03:02:54;;;;;;;9.90;3.60;;;;;;;;;;1025701;28;20058;-73
2022/08/25 03:03:25;;;;;;;5.78;2.60;;;;;;;;;;1025077;28;20475;-73
2022/08/25 03:03:56;;;;;;;4.32;2.22;;;;;;;;;;1027515;28;20035;-74
2022/08/25 03:04:27;;;;;;;11.55;3.05;;;;;;;;;;1023434;28;20388;-73
2022/08/25 03:04:58;;;;;;;5.60;2.28;;;;;;;;;;1026790;28;20122;-73
2022/08/25 03:05:28;;;;;;;7.60;2.63;;;;;;;;;;1024813;28;20399;-73
2022/08/25 03:05:59;;;;;;;6.22;3.10;;;;;;;;;;1027298;28;20054;-73
2022/08/25 03:06:30;;;;;;;8.35;2.63;;;;;;;;;;1024170;28;20055;-74
2022/08/25 03:07:00;;;;;;;12.50;2.42;;;;;;;;;;1026768;28;20506;-73
2022/08/25 03:07:31;;;;;;;10.27;1.85;;;;;;;;;;1025401;28;20036;-73
2022/08/25 03:08:01;;;;;;;17.40;2.25;;;;;;;;;;1025004;28;20027;-74
2022/08/25 03:08:32;;;;;;;8.23;1.65;;;;;;;;;;1025323;28;20555;-73
2022/08/25 03:09:03;;;;;;;9.18;2.42;;;;;;;;;;1027479;28;20471;-74